sensor_id;sensor_type;location;lat;lon;timestamp;temperature;humidity
20319;DHT22;10317;47.254;11.314;2023-08-07T00:01:18;12.10;99.90
20319;DHT22;10317;47.254;11.314;2023-08-07T00:03:44;12.10;99.90
20319;DHT22;10317;47.254;11.314;2023-08-07T00:06:10;12.10;99.90
20319;DHT22;10317;47.254;11.314;2023-08-07T00:08:35;12.00;99.90
20319;DHT22;10317;47.254;11.314;2023-08-07T00:11:29;12.00;99.90
20319;DHT22;10317;47.254;11.314;2023-08-07T00:13:58;12.00;99.90
20319;DHT22;10317;47.254;11.314;2023-08-07T00:16:25;12.10;99.90
20319;DHT22;10317;47.254;11.314;2023-08-07T00:18:50;12.00;99.90
20319;DHT22;10317;47.254;11.314;2023-08-07T00:21:18;12.00;99.90
20319;DHT22;10317;47.254;11.314;2023-08-07T00:23:44;11.90;99.90
20319;DHT22;10317;47.254;11.314;2023-08-07T00:26:09;11.90;99.90
20319;DHT22;10317;47.254;11.314;2023-08-07T00:28:35;11.90;99.90
20319;DHT22;10317;47.254;11.314;2023-08-07T00:31:01;11.70;99.90
20319;DHT22;10317;47.254;11.314;2023-08-07T00:33:27;11.70;99.90
20319;DHT22;10317;47.254;11.314;2023-08-07T00:35:52;11.70;99.90
20319;DHT22;10317;47.254;11.314;2023-08-07T00:38:18;11.70;99.90
20319;DHT22;10317;47.254;11.314;2023-08-07T00:40:44;11.70;99.90
20319;DHT22;10317;47.254;11.314;2023-08-07T00:43:15;11.70;99.90
20319;DHT22;10317;47.254;11.314;2023-08-07T00:45:46;11.70;99.90
20319;DHT22;10317;47.254;11.314;2023-08-07T00:48:15;11.70;99.90
20319;DHT22;10317;47.254;11.314;2023-08-07T00:50:42;11.70;99.90
20319;DHT22;10317;47.254;11.314;2023-08-07T00:53:11;11.70;99.90
20319;DHT22;10317;47.254;11.314;2023-08-07T00:55:38;11.70;99.90
20319;DHT22;10317;47.254;11.314;2023-08-07T00:58:06;11.70;99.90
20319;DHT22;10317;47.254;11.314;2023-08-07T01:00:50;11.70;99.90
20319;DHT22;10317;47.254;11.314;2023-08-07T01:03:26;11.60;99.90
20319;DHT22;10317;47.254;11.314;2023-08-07T01:05:55;11.60;99.90
20319;DHT22;10317;47.254;11.314;2023-08-07T01:08:25;11.60;99.90
20319;DHT22;10317;47.254;11.314;2023-08-07T01:17:00;11.50;99.90
20319;DHT22;10317;47.254;11.314;2023-08-07T01:19:29;11.50;99.90
20319;DHT22;10317;47.254;11.314;2023-08-07T01:22:10;11.50;99.90
20319;DHT22;10317;47.254;11.314;2023-08-07T01:24:43;11.50;99.90
20319;DHT22;10317;47.254;11.314;2023-08-07T01:27:41;11.50;99.90
20319;DHT22;10317;47.254;11.314;2023-08-07T01:30:31;11.50;99.90
20319;DHT22;10317;47.254;11.314;2023-08-07T01:33:37;11.50;99.90
20319;DHT22;10317;47.254;11.314;2023-08-07T01:36:12;11.50;99.90
20319;DHT22;10317;47.254;11.314;2023-08-07T01:38:46;11.50;99.90
20319;DHT22;10317;47.254;11.314;2023-08-07T01:41:36;11.50;99.90
20319;DHT22;10317;47.254;11.314;2023-08-07T01:44:04;11.40;99.90
20319;DHT22;10317;47.254;11.314;2023-08-07T01:46:30;11.40;99.90
20319;DHT22;10317;47.254;11.314;2023-08-07T01:49:00;11.40;99.90
20319;DHT22;10317;47.254;11.314;2023-08-07T01:51:26;11.40;99.90
20319;DHT22;10317;47.254;11.314;2023-08-07T01:53:52;11.40;99.90
20319;DHT22;10317;47.254;11.314;2023-08-07T01:56:19;11.40;99.90
20319;DHT22;10317;47.254;11.314;2023-08-07T01:58:48;11.50;99.90
20319;DHT22;10317;47.254;11.314;2023-08-07T02:01:17;11.50;99.90
20319;DHT22;10317;47.254;11.314;2023-08-07T02:03:46;11.40;99.90
20319;DHT22;10317;47.254;11.314;2023-08-07T02:06:12;11.40;99.90
20319;DHT22;10317;47.254;11.314;2023-08-07T02:08:38;11.30;99.90
20319;DHT22;10317;47.254;11.314;2023-08-07T02:11:03;11.30;99.90
20319;DHT22;10317;47.254;11.314;2023-08-07T02:13:30;11.30;99.90
20319;DHT22;10317;47.254;11.314;2023-08-07T02:15:55;11.30;99.90
20319;DHT22;10317;47.254;11.314;2023-08-07T02:18:21;11.30;99.90
20319;DHT22;10317;47.254;11.314;2023-08-07T02:20:47;11.30;99.90
20319;DHT22;10317;47.254;11.314;2023-08-07T02:23:12;11.30;99.90
20319;DHT22;10317;47.254;11.314;2023-08-07T02:25:38;11.30;99.90
20319;DHT22;10317;47.254;11.314;2023-08-07T02:28:04;11.30;99.90
20319;DHT22;10317;47.254;11.314;2023-08-07T02:30:31;11.20;99.90
20319;DHT22;10317;47.254;11.314;2023-08-07T02:32:56;11.20;99.90
20319;DHT22;10317;47.254;11.314;2023-08-07T02:35:22;11.20;99.90
20319;DHT22;10317;47.254;11.314;2023-08-07T02:37:48;11.20;99.90
20319;DHT22;10317;47.254;11.314;2023-08-07T02:40:14;11.20;99.90
20319;DHT22;10317;47.254;11.314;2023-08-07T02:42:41;11.20;99.90
20319;DHT22;10317;47.254;11.314;2023-08-07T02:45:08;11.10;99.90
20319;DHT22;10317;47.254;11.314;2023-08-07T02:47:33;11.10;99.90
20319;DHT22;10317;47.254;11.314;2023-08-07T02:49:59;11.00;99.90
20319;DHT22;10317;47.254;11.314;2023-08-07T02:52:25;11.00;99.90
20319;DHT22;10317;47.254;11.314;2023-08-07T02:54:52;11.10;99.90
20319;DHT22;10317;47.254;11.314;2023-08-07T02:57:17;11.00;99.90
20319;DHT22;10317;47.254;11.314;2023-08-07T02:59:43;11.10;99.90
20319;DHT22;10317;47.254;11.314;2023-08-07T03:02:09;11.10;99.90
20319;DHT22;10317;47.254;11.314;2023-08-07T03:04:34;11.10;99.90
20319;DHT22;10317;47.254;11.314;2023-08-07T03:07:00;11.10;99.90
20319;DHT22;10317;47.254;11.314;2023-08-07T03:09:26;11.10;99.90
20319;DHT22;10317;47.254;11.314;2023-08-07T03:11:52;11.20;99.90
20319;DHT22;10317;47.254;11.314;2023-08-07T03:14:17;11.20;99.90
20319;DHT22;10317;47.254;11.314;2023-08-07T03:16:45;11.30;99.90
20319;DHT22;10317;47.254;11.314;2023-08-07T03:19:11;11.40;99.90
20319;DHT22;10317;47.254;11.314;2023-08-07T03:21:40;11.50;99.90
20319;DHT22;10317;47.254;11.314;2023-08-07T03:24:06;11.40;99.90
20319;DHT22;10317;47.254;11.314;2023-08-07T03:26:31;11.40;99.90
20319;DHT22;10317;47.254;11.314;2023-08-07T03:28:57;11.40;99.90
20319;DHT22;10317;47.254;11.314;2023-08-07T03:31:23;11.40;99.90
20319;DHT22;10317;47.254;11.314;2023-08-07T03:33:48;11.40;99.90
20319;DHT22;10317;47.254;11.314;2023-08-07T03:36:14;11.50;99.90
20319;DHT22;10317;47.254;11.314;2023-08-07T03:38:40;11.50;99.90
20319;DHT22;10317;47.254;11.314;2023-08-07T03:41:05;11.50;99.90
20319;DHT22;10317;47.254;11.314;2023-08-07T03:43:31;11.50;99.90
20319;DHT22;10317;47.254;11.314;2023-08-07T03:45:57;11.50;99.90
20319;DHT22;10317;47.254;11.314;2023-08-07T03:48:51;11.50;99.90
20319;DHT22;10317;47.254;11.314;2023-08-07T03:51:17;11.50;99.90
20319;DHT22;10317;47.254;11.314;2023-08-07T03:53:43;11.50;99.90
20319;DHT22;10317;47.254;11.314;2023-08-07T03:56:08;11.50;99.90
20319;DHT22;10317;47.254;11.314;2023-08-07T03:58:36;11.50;99.90
20319;DHT22;10317;47.254;11.314;2023-08-07T04:01:04;11.60;99.90
20319;DHT22;10317;47.254;11.314;2023-08-07T04:03:30;11.60;99.90
20319;DHT22;10317;47.254;11.314;2023-08-07T04:05:56;11.60;99.90
20319;DHT22;10317;47.254;11.314;2023-08-07T04:08:22;11.60;99.90
20319;DHT22;10317;47.254;11.314;2023-08-07T04:13:25;11.50;99.90
20319;DHT22;10317;47.254;11.314;2023-08-07T04:15:52;11.50;99.90
20319;DHT22;10317;47.254;11.314;2023-08-07T04:18:17;11.50;99.90
20319;DHT22;10317;47.254;11.314;2023-08-07T04:20:56;11.40;99.90
20319;DHT22;10317;47.254;11.314;2023-08-07T04:23:26;11.50;99.90
20319;DHT22;10317;47.254;11.314;2023-08-07T04:25:53;11.50;99.90
20319;DHT22;10317;47.254;11.314;2023-08-07T04:28:32;11.40;99.90
20319;DHT22;10317;47.254;11.314;2023-08-07T04:31:00;11.40;99.90
20319;DHT22;10317;47.254;11.314;2023-08-07T04:33:35;11.30;99.90
20319;DHT22;10317;47.254;11.314;2023-08-07T04:36:08;11.20;99.90
20319;DHT22;10317;47.254;11.314;2023-08-07T04:44:16;11.20;99.90
20319;DHT22;10317;47.254;11.314;2023-08-07T04:46:49;11.20;99.90
20319;DHT22;10317;47.254;11.314;2023-08-07T04:49:25;11.30;99.90
20319;DHT22;10317;47.254;11.314;2023-08-07T04:51:54;11.20;99.90
20319;DHT22;10317;47.254;11.314;2023-08-07T04:54:20;11.20;99.90
20319;DHT22;10317;47.254;11.314;2023-08-07T04:56:47;11.30;99.90
20319;DHT22;10317;47.254;11.314;2023-08-07T04:59:18;11.20;99.90
20319;DHT22;10317;47.254;11.314;2023-08-07T05:01:45;11.30;99.90
20319;DHT22;10317;47.254;11.314;2023-08-07T05:05:22;11.30;99.90
20319;DHT22;10317;47.254;11.314;2023-08-07T05:11:17;11.40;99.90
20319;DHT22;10317;47.254;11.314;2023-08-07T05:14:19;11.40;99.90
20319;DHT22;10317;47.254;11.314;2023-08-07T05:24:17;11.60;99.90
20319;DHT22;10317;47.254;11.314;2023-08-07T05:37:53;12.00;99.90
20319;DHT22;10317;47.254;11.314;2023-08-07T05:51:03;12.30;99.90
20319;DHT22;10317;47.254;11.314;2023-08-07T05:53:29;12.60;99.90
20319;DHT22;10317;47.254;11.314;2023-08-07T05:55:56;12.70;99.90
20319;DHT22;10317;47.254;11.314;2023-08-07T05:58:21;12.80;99.90
20319;DHT22;10317;47.254;11.314;2023-08-07T06:00:47;12.70;99.90
20319;DHT22;10317;47.254;11.314;2023-08-07T06:03:13;12.70;99.90
20319;DHT22;10317;47.254;11.314;2023-08-07T06:05:39;12.60;99.90
20319;DHT22;10317;47.254;11.314;2023-08-07T06:08:04;12.50;99.90
20319;DHT22;10317;47.254;11.314;2023-08-07T06:10:30;12.60;99.90
20319;DHT22;10317;47.254;11.314;2023-08-07T06:12:56;12.70;99.90
20319;DHT22;10317;47.254;11.314;2023-08-07T06:15:21;12.90;99.90
20319;DHT22;10317;47.254;11.314;2023-08-07T06:17:47;12.90;99.90
20319;DHT22;10317;47.254;11.314;2023-08-07T06:20:13;13.00;99.90
20319;DHT22;10317;47.254;11.314;2023-08-07T06:22:41;13.10;99.90
20319;DHT22;10317;47.254;11.314;2023-08-07T06:25:10;13.30;99.90
20319;DHT22;10317;47.254;11.314;2023-08-07T06:27:35;13.30;99.90
20319;DHT22;10317;47.254;11.314;2023-08-07T06:30:01;13.60;99.90
20319;DHT22;10317;47.254;11.314;2023-08-07T06:32:30;13.70;99.90
20319;DHT22;10317;47.254;11.314;2023-08-07T06:34:56;13.70;99.90
20319;DHT22;10317;47.254;11.314;2023-08-07T06:37:21;13.60;99.90
20319;DHT22;10317;47.254;11.314;2023-08-07T06:39:47;13.50;99.90
20319;DHT22;10317;47.254;11.314;2023-08-07T06:42:18;13.50;99.90
20319;DHT22;10317;47.254;11.314;2023-08-07T06:44:44;13.50;99.90
20319;DHT22;10317;47.254;11.314;2023-08-07T06:47:09;13.40;99.90
20319;DHT22;10317;47.254;11.314;2023-08-07T06:49:36;13.50;99.90
20319;DHT22;10317;47.254;11.314;2023-08-07T06:52:01;14.20;99.90
20319;DHT22;10317;47.254;11.314;2023-08-07T06:54:27;15.50;99.90
20319;DHT22;10317;47.254;11.314;2023-08-07T06:56:53;16.10;98.60
20319;DHT22;10317;47.254;11.314;2023-08-07T06:59:19;16.20;96.30
20319;DHT22;10317;47.254;11.314;2023-08-07T07:01:45;16.40;96.20
20319;DHT22;10317;47.254;11.314;2023-08-07T07:04:11;16.60;94.70
20319;DHT22;10317;47.254;11.314;2023-08-07T07:06:40;16.70;94.90
20319;DHT22;10317;47.254;11.314;2023-08-07T07:09:06;16.30;93.30
20319;DHT22;10317;47.254;11.314;2023-08-07T07:11:31;15.90;93.80
20319;DHT22;10317;47.254;11.314;2023-08-07T07:13:57;15.40;96.60
20319;DHT22;10317;47.254;11.314;2023-08-07T07:16:23;15.50;96.30
20319;DHT22;10317;47.254;11.314;2023-08-07T07:18:55;15.60;96.60
20319;DHT22;10317;47.254;11.314;2023-08-07T07:21:32;15.80;94.60
20319;DHT22;10317;47.254;11.314;2023-08-07T07:23:58;15.70;95.00
20319;DHT22;10317;47.254;11.314;2023-08-07T07:26:24;15.70;97.20
20319;DHT22;10317;47.254;11.314;2023-08-07T07:28:50;15.50;96.80
20319;DHT22;10317;47.254;11.314;2023-08-07T07:31:28;15.60;95.10
20319;DHT22;10317;47.254;11.314;2023-08-07T07:33:54;15.90;94.40
20319;DHT22;10317;47.254;11.314;2023-08-07T07:36:20;16.10;94.90
20319;DHT22;10317;47.254;11.314;2023-08-07T07:38:46;16.60;93.70
20319;DHT22;10317;47.254;11.314;2023-08-07T07:41:15;16.90;93.80
20319;DHT22;10317;47.254;11.314;2023-08-07T07:43:59;17.00;91.40
20319;DHT22;10317;47.254;11.314;2023-08-07T07:46:27;17.10;92.80
20319;DHT22;10317;47.254;11.314;2023-08-07T07:49:22;16.90;93.60
20319;DHT22;10317;47.254;11.314;2023-08-07T07:51:57;16.50;91.60
20319;DHT22;10317;47.254;11.314;2023-08-07T07:54:50;16.10;94.50
20319;DHT22;10317;47.254;11.314;2023-08-07T07:57:16;15.90;95.00
20319;DHT22;10317;47.254;11.314;2023-08-07T07:59:43;15.70;93.50
20319;DHT22;10317;47.254;11.314;2023-08-07T08:02:08;15.70;94.20
20319;DHT22;10317;47.254;11.314;2023-08-07T08:04:35;16.90;93.30
20319;DHT22;10317;47.254;11.314;2023-08-07T08:07:01;18.60;88.30
20319;DHT22;10317;47.254;11.314;2023-08-07T08:09:26;19.20;84.50
20319;DHT22;10317;47.254;11.314;2023-08-07T08:11:52;18.70;83.80
20319;DHT22;10317;47.254;11.314;2023-08-07T08:14:21;18.40;89.70
20319;DHT22;10317;47.254;11.314;2023-08-07T08:16:50;18.20;89.30
20319;DHT22;10317;47.254;11.314;2023-08-07T08:19:15;17.60;89.40
20319;DHT22;10317;47.254;11.314;2023-08-07T08:21:43;17.10;88.70
20319;DHT22;10317;47.254;11.314;2023-08-07T08:24:10;16.80;86.40
20319;DHT22;10317;47.254;11.314;2023-08-07T08:26:39;16.70;90.60
20319;DHT22;10317;47.254;11.314;2023-08-07T08:29:24;17.10;91.20
20319;DHT22;10317;47.254;11.314;2023-08-07T08:32:20;18.80;86.00
20319;DHT22;10317;47.254;11.314;2023-08-07T08:35:24;19.20;80.20
20319;DHT22;10317;47.254;11.314;2023-08-07T08:37:51;18.80;85.90
20319;DHT22;10317;47.254;11.314;2023-08-07T08:40:17;18.10;81.60
20319;DHT22;10317;47.254;11.314;2023-08-07T08:42:45;17.90;82.00
20319;DHT22;10317;47.254;11.314;2023-08-07T08:45:13;18.80;81.40
20319;DHT22;10317;47.254;11.314;2023-08-07T08:47:39;20.10;79.00
20319;DHT22;10317;47.254;11.314;2023-08-07T08:50:35;20.90;72.60
20319;DHT22;10317;47.254;11.314;2023-08-07T08:53:19;21.50;67.90
20319;DHT22;10317;47.254;11.314;2023-08-07T08:56:11;21.80;62.50
20319;DHT22;10317;47.254;11.314;2023-08-07T08:58:38;21.40;65.50
20319;DHT22;10317;47.254;11.314;2023-08-07T09:01:33;21.50;65.80
20319;DHT22;10317;47.254;11.314;2023-08-07T09:04:02;21.70;60.70
20319;DHT22;10317;47.254;11.314;2023-08-07T09:06:31;21.60;63.70
20319;DHT22;10317;47.254;11.314;2023-08-07T09:09:02;21.70;61.00
20319;DHT22;10317;47.254;11.314;2023-08-07T09:11:44;21.90;59.60
20319;DHT22;10317;47.254;11.314;2023-08-07T09:14:35;22.10;56.30
20319;DHT22;10317;47.254;11.314;2023-08-07T09:17:28;22.50;54.30
20319;DHT22;10317;47.254;11.314;2023-08-07T09:19:55;22.20;57.90
20319;DHT22;10317;47.254;11.314;2023-08-07T09:22:21;22.80;53.10
20319;DHT22;10317;47.254;11.314;2023-08-07T09:24:53;22.80;53.50
20319;DHT22;10317;47.254;11.314;2023-08-07T09:27:18;22.50;55.30
20319;DHT22;10317;47.254;11.314;2023-08-07T09:29:46;21.80;54.30
20319;DHT22;10317;47.254;11.314;2023-08-07T09:32:12;21.60;56.00
20319;DHT22;10317;47.254;11.314;2023-08-07T09:34:42;21.10;58.40
20319;DHT22;10317;47.254;11.314;2023-08-07T09:37:11;21.00;60.10
20319;DHT22;10317;47.254;11.314;2023-08-07T09:39:37;21.10;62.40
20319;DHT22;10317;47.254;11.314;2023-08-07T09:42:16;21.10;59.00
20319;DHT22;10317;47.254;11.314;2023-08-07T09:44:42;21.20;58.10
20319;DHT22;10317;47.254;11.314;2023-08-07T09:47:16;21.00;59.50
20319;DHT22;10317;47.254;11.314;2023-08-07T09:49:42;21.20;60.40
20319;DHT22;10317;47.254;11.314;2023-08-07T09:52:10;20.90;59.50
20319;DHT22;10317;47.254;11.314;2023-08-07T09:54:36;21.00;55.70
20319;DHT22;10317;47.254;11.314;2023-08-07T09:57:03;20.70;57.60
20319;DHT22;10317;47.254;11.314;2023-08-07T09:59:29;20.40;56.10
20319;DHT22;10317;47.254;11.314;2023-08-07T10:01:55;20.40;57.40
20319;DHT22;10317;47.254;11.314;2023-08-07T10:04:26;20.50;57.60
20319;DHT22;10317;47.254;11.314;2023-08-07T10:06:53;20.90;57.60
20319;DHT22;10317;47.254;11.314;2023-08-07T10:09:19;20.80;61.00
20319;DHT22;10317;47.254;11.314;2023-08-07T10:11:45;21.50;56.60
20319;DHT22;10317;47.254;11.314;2023-08-07T10:14:15;21.70;56.00
20319;DHT22;10317;47.254;11.314;2023-08-07T10:16:41;21.70;52.30
20319;DHT22;10317;47.254;11.314;2023-08-07T10:19:10;21.50;55.50
20319;DHT22;10317;47.254;11.314;2023-08-07T10:21:48;21.30;51.70
20319;DHT22;10317;47.254;11.314;2023-08-07T10:24:16;21.00;52.40
20319;DHT22;10317;47.254;11.314;2023-08-07T10:26:44;21.10;54.30
20319;DHT22;10317;47.254;11.314;2023-08-07T10:29:14;21.40;52.90
20319;DHT22;10317;47.254;11.314;2023-08-07T10:31:42;21.70;52.60
20319;DHT22;10317;47.254;11.314;2023-08-07T10:34:09;21.70;53.20
20319;DHT22;10317;47.254;11.314;2023-08-07T10:36:36;21.80;53.40
20319;DHT22;10317;47.254;11.314;2023-08-07T10:39:11;21.60;52.00
20319;DHT22;10317;47.254;11.314;2023-08-07T10:41:44;21.50;53.50
20319;DHT22;10317;47.254;11.314;2023-08-07T10:44:30;21.20;55.50
20319;DHT22;10317;47.254;11.314;2023-08-07T10:47:01;21.00;54.30
20319;DHT22;10317;47.254;11.314;2023-08-07T10:49:38;20.70;55.30
20319;DHT22;10317;47.254;11.314;2023-08-07T10:52:08;20.00;57.20
20319;DHT22;10317;47.254;11.314;2023-08-07T10:54:39;20.30;57.80
20319;DHT22;10317;47.254;11.314;2023-08-07T10:57:11;20.70;57.00
20319;DHT22;10317;47.254;11.314;2023-08-07T10:59:38;20.90;58.40
20319;DHT22;10317;47.254;11.314;2023-08-07T11:02:07;21.00;56.20
20319;DHT22;10317;47.254;11.314;2023-08-07T11:04:37;21.00;57.40
20319;DHT22;10317;47.254;11.314;2023-08-07T11:07:03;21.20;58.40
20319;DHT22;10317;47.254;11.314;2023-08-07T11:09:28;21.20;55.10
20319;DHT22;10317;47.254;11.314;2023-08-07T11:11:54;21.10;54.90
20319;DHT22;10317;47.254;11.314;2023-08-07T11:14:20;21.00;54.80
20319;DHT22;10317;47.254;11.314;2023-08-07T11:16:47;20.90;55.40
20319;DHT22;10317;47.254;11.314;2023-08-07T11:19:14;20.80;56.00
20319;DHT22;10317;47.254;11.314;2023-08-07T11:21:42;20.80;55.20
20319;DHT22;10317;47.254;11.314;2023-08-07T11:24:08;20.80;55.60
20319;DHT22;10317;47.254;11.314;2023-08-07T11:26:34;20.90;56.00
20319;DHT22;10317;47.254;11.314;2023-08-07T11:29:00;21.00;56.80
20319;DHT22;10317;47.254;11.314;2023-08-07T11:31:25;21.00;55.90
20319;DHT22;10317;47.254;11.314;2023-08-07T11:33:55;21.10;55.60
20319;DHT22;10317;47.254;11.314;2023-08-07T11:36:23;21.00;55.60
20319;DHT22;10317;47.254;11.314;2023-08-07T11:38:49;21.30;56.10
20319;DHT22;10317;47.254;11.314;2023-08-07T11:41:17;21.40;58.70
20319;DHT22;10317;47.254;11.314;2023-08-07T11:43:43;21.40;57.60
20319;DHT22;10317;47.254;11.314;2023-08-07T11:46:13;21.20;57.40
20319;DHT22;10317;47.254;11.314;2023-08-07T11:48:42;21.20;59.00
20319;DHT22;10317;47.254;11.314;2023-08-07T11:51:08;21.20;55.00
20319;DHT22;10317;47.254;11.314;2023-08-07T11:53:38;21.20;56.00
20319;DHT22;10317;47.254;11.314;2023-08-07T11:56:07;21.10;54.40
20319;DHT22;10317;47.254;11.314;2023-08-07T11:58:48;21.10;54.40
20319;DHT22;10317;47.254;11.314;2023-08-07T12:01:25;20.90;54.00
20319;DHT22;10317;47.254;11.314;2023-08-07T12:04:09;21.00;56.50
20319;DHT22;10317;47.254;11.314;2023-08-07T12:06:35;21.10;50.20
20319;DHT22;10317;47.254;11.314;2023-08-07T12:09:02;21.10;54.00
20319;DHT22;10317;47.254;11.314;2023-08-07T12:11:31;21.10;52.80
20319;DHT22;10317;47.254;11.314;2023-08-07T12:13:59;21.20;53.30
20319;DHT22;10317;47.254;11.314;2023-08-07T12:16:25;21.20;54.60
20319;DHT22;10317;47.254;11.314;2023-08-07T12:18:52;21.20;52.80
20319;DHT22;10317;47.254;11.314;2023-08-07T12:21:20;21.20;53.90
20319;DHT22;10317;47.254;11.314;2023-08-07T12:23:46;21.30;51.10
20319;DHT22;10317;47.254;11.314;2023-08-07T12:26:13;21.40;51.40
20319;DHT22;10317;47.254;11.314;2023-08-07T12:28:39;21.20;51.40
20319;DHT22;10317;47.254;11.314;2023-08-07T12:31:05;21.20;49.90
20319;DHT22;10317;47.254;11.314;2023-08-07T12:33:32;21.30;50.80
20319;DHT22;10317;47.254;11.314;2023-08-07T12:35:59;21.50;50.20
20319;DHT22;10317;47.254;11.314;2023-08-07T12:38:25;21.60;53.90
20319;DHT22;10317;47.254;11.314;2023-08-07T12:40:51;21.60;52.10
20319;DHT22;10317;47.254;11.314;2023-08-07T12:43:17;21.80;47.80
20319;DHT22;10317;47.254;11.314;2023-08-07T12:45:43;22.00;49.00
20319;DHT22;10317;47.254;11.314;2023-08-07T12:48:08;22.20;48.80
20319;DHT22;10317;47.254;11.314;2023-08-07T12:50:35;22.20;46.90
20319;DHT22;10317;47.254;11.314;2023-08-07T12:53:00;22.00;48.30
20319;DHT22;10317;47.254;11.314;2023-08-07T12:55:26;22.00;51.50
20319;DHT22;10317;47.254;11.314;2023-08-07T12:57:53;21.90;49.40
20319;DHT22;10317;47.254;11.314;2023-08-07T13:00:19;22.00;48.70
20319;DHT22;10317;47.254;11.314;2023-08-07T13:02:47;22.20;47.80
20319;DHT22;10317;47.254;11.314;2023-08-07T13:05:13;22.20;47.70
20319;DHT22;10317;47.254;11.314;2023-08-07T13:07:40;22.10;46.90
20319;DHT22;10317;47.254;11.314;2023-08-07T13:10:07;22.00;47.80
20319;DHT22;10317;47.254;11.314;2023-08-07T13:12:35;21.90;48.40
20319;DHT22;10317;47.254;11.314;2023-08-07T13:15:02;21.90;48.60
20319;DHT22;10317;47.254;11.314;2023-08-07T13:17:28;21.90;49.40
20319;DHT22;10317;47.254;11.314;2023-08-07T13:19:53;21.60;48.80
20319;DHT22;10317;47.254;11.314;2023-08-07T13:22:19;21.60;49.20
20319;DHT22;10317;47.254;11.314;2023-08-07T13:24:45;21.60;48.70
20319;DHT22;10317;47.254;11.314;2023-08-07T13:27:10;21.50;51.00
20319;DHT22;10317;47.254;11.314;2023-08-07T13:29:36;21.60;49.10
20319;DHT22;10317;47.254;11.314;2023-08-07T13:32:02;21.50;49.30
20319;DHT22;10317;47.254;11.314;2023-08-07T13:34:37;21.60;51.80
20319;DHT22;10317;47.254;11.314;2023-08-07T13:37:06;21.50;50.20
20319;DHT22;10317;47.254;11.314;2023-08-07T13:39:32;21.20;50.50
20319;DHT22;10317;47.254;11.314;2023-08-07T13:41:58;21.00;52.40
20319;DHT22;10317;47.254;11.314;2023-08-07T13:44:25;21.00;50.50
20319;DHT22;10317;47.254;11.314;2023-08-07T13:46:51;21.10;51.90
20319;DHT22;10317;47.254;11.314;2023-08-07T13:49:17;21.10;52.30
20319;DHT22;10317;47.254;11.314;2023-08-07T13:51:43;21.10;50.30
20319;DHT22;10317;47.254;11.314;2023-08-07T13:54:12;21.10;51.20
20319;DHT22;10317;47.254;11.314;2023-08-07T13:56:38;21.20;50.90
20319;DHT22;10317;47.254;11.314;2023-08-07T13:59:03;21.20;51.40
20319;DHT22;10317;47.254;11.314;2023-08-07T14:01:29;21.20;49.00
20319;DHT22;10317;47.254;11.314;2023-08-07T14:03:55;21.40;51.40
20319;DHT22;10317;47.254;11.314;2023-08-07T14:06:20;21.50;50.90
20319;DHT22;10317;47.254;11.314;2023-08-07T14:08:46;21.50;50.40
20319;DHT22;10317;47.254;11.314;2023-08-07T14:11:12;21.40;51.10
20319;DHT22;10317;47.254;11.314;2023-08-07T14:13:40;21.40;52.90
20319;DHT22;10317;47.254;11.314;2023-08-07T14:16:06;21.30;51.10
20319;DHT22;10317;47.254;11.314;2023-08-07T14:18:32;21.10;52.00
20319;DHT22;10317;47.254;11.314;2023-08-07T14:20:58;21.10;50.40
20319;DHT22;10317;47.254;11.314;2023-08-07T14:23:24;21.10;50.50
20319;DHT22;10317;47.254;11.314;2023-08-07T14:25:49;21.00;50.50
20319;DHT22;10317;47.254;11.314;2023-08-07T14:28:16;20.80;53.80
20319;DHT22;10317;47.254;11.314;2023-08-07T14:30:42;20.50;55.50
20319;DHT22;10317;47.254;11.314;2023-08-07T14:33:08;20.50;56.10
20319;DHT22;10317;47.254;11.314;2023-08-07T14:35:34;20.70;56.00
20319;DHT22;10317;47.254;11.314;2023-08-07T14:37:59;20.60;54.90
20319;DHT22;10317;47.254;11.314;2023-08-07T14:40:25;20.40;55.30
20319;DHT22;10317;47.254;11.314;2023-08-07T14:42:53;20.50;57.00
20319;DHT22;10317;47.254;11.314;2023-08-07T14:45:19;20.40;54.30
20319;DHT22;10317;47.254;11.314;2023-08-07T14:47:45;20.30;57.40
20319;DHT22;10317;47.254;11.314;2023-08-07T14:50:11;20.30;53.90
20319;DHT22;10317;47.254;11.314;2023-08-07T14:52:37;20.20;56.10
20319;DHT22;10317;47.254;11.314;2023-08-07T14:55:03;20.20;54.50
20319;DHT22;10317;47.254;11.314;2023-08-07T14:57:29;20.10;55.70
20319;DHT22;10317;47.254;11.314;2023-08-07T14:59:55;20.50;53.90
20319;DHT22;10317;47.254;11.314;2023-08-07T15:02:20;20.70;53.70
20319;DHT22;10317;47.254;11.314;2023-08-07T15:04:46;20.70;54.40
20319;DHT22;10317;47.254;11.314;2023-08-07T15:07:12;20.70;53.50
20319;DHT22;10317;47.254;11.314;2023-08-07T15:09:37;20.60;53.60
20319;DHT22;10317;47.254;11.314;2023-08-07T15:12:03;20.20;54.20
20319;DHT22;10317;47.254;11.314;2023-08-07T15:14:32;20.20;54.80
20319;DHT22;10317;47.254;11.314;2023-08-07T15:16:57;19.80;57.20
20319;DHT22;10317;47.254;11.314;2023-08-07T15:19:23;19.70;55.20
20319;DHT22;10317;47.254;11.314;2023-08-07T15:21:52;19.20;56.30
20319;DHT22;10317;47.254;11.314;2023-08-07T15:24:18;18.90;56.50
20319;DHT22;10317;47.254;11.314;2023-08-07T15:26:44;18.80;57.90
20319;DHT22;10317;47.254;11.314;2023-08-07T15:29:11;18.60;57.10
20319;DHT22;10317;47.254;11.314;2023-08-07T15:31:36;18.70;58.10
20319;DHT22;10317;47.254;11.314;2023-08-07T15:34:02;18.90;57.60
20319;DHT22;10317;47.254;11.314;2023-08-07T15:36:28;19.20;58.10
20319;DHT22;10317;47.254;11.314;2023-08-07T15:38:54;19.30;58.70
20319;DHT22;10317;47.254;11.314;2023-08-07T15:41:21;19.20;59.20
20319;DHT22;10317;47.254;11.314;2023-08-07T15:43:46;18.80;57.00
20319;DHT22;10317;47.254;11.314;2023-08-07T15:46:15;18.50;59.10
20319;DHT22;10317;47.254;11.314;2023-08-07T15:48:41;18.30;58.50
20319;DHT22;10317;47.254;11.314;2023-08-07T15:51:07;18.20;58.00
20319;DHT22;10317;47.254;11.314;2023-08-07T15:53:33;18.20;59.40
20319;DHT22;10317;47.254;11.314;2023-08-07T15:55:58;18.20;56.70
20319;DHT22;10317;47.254;11.314;2023-08-07T15:58:24;18.20;59.40
20319;DHT22;10317;47.254;11.314;2023-08-07T16:00:50;18.20;56.30
20319;DHT22;10317;47.254;11.314;2023-08-07T16:03:16;18.40;56.70
20319;DHT22;10317;47.254;11.314;2023-08-07T16:05:43;18.70;58.50
20319;DHT22;10317;47.254;11.314;2023-08-07T16:08:09;19.00;58.30
20319;DHT22;10317;47.254;11.314;2023-08-07T16:10:35;19.20;57.60
20319;DHT22;10317;47.254;11.314;2023-08-07T16:13:03;19.40;56.00